Time;durP1;ratioP1;P1;durP2;ratioP2;P2;SDS_P1;SDS_P2;PMS_P1;PMS_P2;Temp;Humidity;BMP_temperature;BMP_pressure;BME280_temperature;BME280_humidity;BME280_pressure;Samples;Min_cycle;Max_cycle;Signal;HPM_P1;HPM_P2
2023/01/31 07:40:50;;;;;;;;;;;;;;;;;;5287834;23;19954;-88
2023/01/31 09:42:21;;;;;;;;;;;;;;;;;;5109886;23;19926;-83
2023/01/31 09:45:07;;;;;;;;;;;;;;;;;;4956550;29;20335;-86
2023/01/31 09:47:35;;;;;;;;;;;;;;;;;;4922314;29;20000;-85
2023/01/31 09:50:04;;;;;;;;;;;;;;;;;;4956125;29;20008;-92
2023/01/31 09:52:31;;;;;;;;;;;;;;;;;;4938797;29;20001;-85
2023/01/31 09:54:56;;;;;;;;;;;;;;;;;;4938923;29;19918;-86
2023/01/31 09:57:25;;;;;;;;;;;;;;;;;;4939122;29;19914;-86
2023/01/31 09:59:56;;;;;;;;;;;;;;;;;;4955832;29;19914;-87
2023/01/31 10:02:27;;;;;;;;;;;;;;;;;;4938849;29;19920;-85
2023/01/31 10:05:02;;;;;;;;;;;;;;;;;;4955829;29;20348;-84
2023/01/31 10:07:40;;;;;;;;;;;;;;;;;;4956040;29;19922;-85
2023/01/31 10:10:12;;;;;;;;;;;;;;;;;;4955469;29;20424;-82
2023/01/31 10:12:37;;;;;;;;;;;;;;;;;;4957629;28;19915;-83
2023/01/31 10:15:09;;;;;;;;;;;;;;;;;;4959726;29;19914;-85
2023/01/31 10:17:45;;;;;;;;;;;;;;;;;;4959726;29;19915;-85
2023/01/31 10:20:40;;;;;;;;;;;;;;;;;;4959749;29;19917;-85
2023/01/31 10:23:24;;;;;;;;;;;;;;;;;;4875623;29;19916;-85
2023/01/31 10:25:55;;;;;;;;;;;;;;;;;;4959595;29;20017;-85
2023/01/31 10:28:29;;;;;;;;;;;;;;;;;;4959678;29;19917;-86
2023/01/31 10:30:54;;;;;;;;;;;;;;;;;;4942204;29;19930;-85
2023/01/31 10:33:19;;;;;;;;;;;;;;;;;;4942233;29;19924;-87
2023/01/31 10:35:47;;;;;;;;;;;;;;;;;;4959462;29;20400;-85
2023/01/31 10:38:19;;;;;;;;;;;;;;;;;;4942235;29;19918;-86
2023/01/31 10:40:47;;;;;;;;;;;;;;;;;;4942026;29;19961;-85
2023/01/31 10:43:15;;;;;;;;;;;;;;;;;;4938689;29;19918;-86
2023/01/31 10:45:40;;;;;;;3.10;2.70;;;;;;;;;;4939671;29;19985;-83
2023/01/31 10:48:25;;;;;;;2.95;2.20;;;;;;;;;;4938271;29;20040;-84
2023/01/31 10:51:08;;;;;;;2.70;2.30;;;;;;;;;;4939148;29;20057;-84
2023/01/31 10:53:42;;;;;;;2.85;2.50;;;;;;;;;;4939302;29;20036;-84
2023/01/31 10:56:23;;;;;;;2.45;1.95;;;;;;;;;;4938036;29;20040;-89
2023/01/31 10:58:49;;;;;;;4.68;2.40;;;;;;;;;;4937803;29;20039;-83
2023/01/31 11:01:15;;;;;;;;;;;;;;;;;;4938604;29;20362;-84
2023/01/31 11:03:44;;;;;;;;;;;;;;;;;;4940826;29;19919;-85
2023/01/31 11:06:10;;;;;;;;;;;;;;;;;;4939843;29;19965;-86
2023/01/31 11:08:46;;;;;;;;;;;;;;;;;;4939600;29;19919;-84
2023/01/31 11:11:13;;;;;;;;;;;;;;;;;;4936049;29;19919;-84
2023/01/31 11:13:39;;;;;;;;;;;;;;;;;;4939361;29;19922;-83
2023/01/31 11:16:09;;;;;;;;;;;;;;;;;;4939535;29;20017;-84
2023/01/31 11:18:36;;;;;;;;;;;;;;;;;;4938420;29;19923;-84
2023/01/31 11:21:02;;;;;;;;;;;;;;;;;;4939359;28;19919;-83
2023/01/31 11:23:29;;;;;;;;;;;;;;;;;;4937880;29;19919;-85
2023/01/31 11:25:55;;;;;;;;;;;;;;;;;;4939371;29;20341;-85
2023/01/31 11:28:28;;;;;;;;;;;;;;;;;;4938276;29;20070;-89
2023/01/31 11:30:54;;;;;;;;;;;;;;;;;;4939047;29;19918;-85
2023/01/31 11:33:38;;;;;;;;;;;;;;;;;;4939373;29;19918;-85
2023/01/31 11:36:14;;;;;;;;;;;;;;;;;;4938094;29;20400;-84
2023/01/31 11:38:40;;;;;;;;;;;;;;;;;;4938175;29;19926;-88
2023/01/31 11:41:24;;;;;;;;;;;;;;;;;;4939553;29;19919;-88
2023/01/31 11:43:49;;;;;;;;;;;;;;;;;;4953409;29;19937;-88
2023/01/31 11:46:15;;;;;;;;;;;;;;;;;;4941531;29;19919;-89
2023/01/31 11:48:42;;;;;;;;;;;;;;;;;;4958488;29;19925;-89
2023/01/31 11:51:08;;;;;;;;;;;;;;;;;;4958141;29;19918;-91
2023/01/31 11:53:37;;;;;;;;;;;;;;;;;;4958460;29;19930;-88
2023/01/31 11:56:28;;;;;;;;;;;;;;;;;;4941387;29;19919;-92
2023/01/31 11:58:56;;;;;;;;;;;;;;;;;;4953802;28;19918;-93
2023/01/31 12:01:23;;;;;;;;;;;;;;;;;;4958810;29;20026;-91
2023/01/31 12:03:51;;;;;;;;;;;;;;;;;;4958405;29;19926;-88
2023/01/31 12:06:35;;;;;;;;;;;;;;;;;;4958248;29;20381;-93
2023/01/31 12:09:03;;;;;;;;;;;;;;;;;;4958409;29;19918;-93
2023/01/31 12:11:30;;;;;;;;;;;;;;;;;;4958367;29;19919;-88
2023/01/31 12:14:08;;;;;;;;;;;;;;;;;;4941066;29;19969;-94
2023/01/31 12:16:35;;;;;;;;;;;;;;;;;;4957924;29;19919;-91
2023/01/31 12:19:13;;;;;;;;;;;;;;;;;;4957927;29;19918;-93
2023/01/31 12:21:41;;;;;;;;;;;;;;;;;;4941077;29;20017;-93
2023/01/31 12:24:15;;;;;;;;;;;;;;;;;;4958123;29;19966;-91
2023/01/31 12:27:01;;;;;;;;;;;;;;;;;;4957746;29;19919;-92
2023/01/31 12:29:44;;;;;;;;;;;;;;;;;;4956781;29;19914;-90
2023/01/31 12:32:23;;;;;;;;;;;;;;;;;;4958304;29;19914;-86
2023/01/31 12:34:54;;;;;;;;;;;;;;;;;;4956849;28;19925;-89
2023/01/31 12:37:37;;;;;;;;;;;;;;;;;;4957426;29;19921;-85
2023/01/31 12:40:09;;;;;;;;;;;;;;;;;;4940576;29;19929;-87
2023/01/31 12:42:54;;;;;;;;;;;;;;;;;;4956941;29;19946;-88
2023/01/31 12:45:31;;;;;;;;;;;;;;;;;;4957256;29;19971;-88
2023/01/31 12:48:06;;;;;;;;;;;;;;;;;;4957492;29;19916;-83
2023/01/31 17:47:35;;;;;;;;;;;;;;;;;;5379895;23;20312;-95
2023/01/31 17:50:00;;;;;;;;;;;;;;;;;;4936555;29;19919;-90
2023/01/31 17:52:26;;;;;;;;;;;;;;;;;;4936654;29;19989;-89
2023/01/31 17:58:45;;;;;;;;;;;;;;;;;;;;;
2023/01/31 18:00:47;;;;;;;;;;;;;;;;;;4857715;29;19936;-96
2023/01/31 18:03:30;;;;;;;;;;;;;;;;;;4852200;29;19964;-96
2023/01/31 18:06:01;;;;;;;;;;;;;;;;;;4846257;29;19968;-96
2023/01/31 18:12:04;;;;;;;;;;;;;;;;;;4956488;23;19982;-95
2023/01/31 18:14:29;;;;;;;;;;;;;;;;;;4960683;29;19918;-95
2023/01/31 18:16:55;;;;;;;;;;;;;;;;;;4958220;29;19982;-94
2023/01/31 18:19:20;;;;;;;;;;;;;;;;;;4959338;29;20281;-94
2023/01/31 18:21:47;;;;;;;;;;;;;;;;;;4958498;29;19920;-95
2023/01/31 18:24:13;;;;;;;;;;;;;;;;;;4963901;28;19918;-96
2023/01/31 18:26:43;;;;;;;;;;;;;;;;;;4955266;28;19914;-95
2023/01/31 18:29:27;;;;;;;;;;;;;;;;;;4965048;28;19952;-96
2023/01/31 18:32:10;;;;;;;;;;;;;;;;;;4976687;28;19953;-96
2023/01/31 18:34:57;;;;;;;;;;;;;;;;;;4974495;28;19919;-96
2023/01/31 18:37:25;;;;;;;;;;;;;;;;;;4964281;29;20326;-95
2023/01/31 18:39:51;;;;;;;;;;;;;;;;;;4959100;29;19922;-94
2023/01/31 18:42:19;;;;;;;11.93;8.45;;;;;;;;;;4959129;29;19914;-96
2023/01/31 18:44:52;;;;;;;8.23;6.10;;;;;;;;;;4966652;23;20055;-95
2023/01/31 18:47:18;;;;;;;;;;;;;;;;;;4926621;29;19923;-94
2023/01/31 18:49:43;;;;;;;;;;;;;;;;;;4929397;29;19922;-94
2023/01/31 18:52:16;;;;;;;;;;;;;;;;;;4930598;29;20182;-96
2023/01/31 18:54:41;;;;;;;;;;;;;;;;;;4927459;29;19926;-95
2023/01/31 18:57:11;;;;;;;;;;;;;;;;;;4935428;29;19966;-95
2023/01/31 19:00:03;;;;;;;;;;;;;;;;;;4956753;29;19938;-95
2023/01/31 19:02:39;;;;;;;;;;;;;;;;;;4937354;29;19930;-96
2023/01/31 19:05:11;;;;;;;;;;;;;;;;;;4930889;29;19931;-96
2023/01/31 19:07:36;;;;;;;;;;;;;;;;;;4929368;29;20458;-93
2023/01/31 19:10:02;;;;;;;;;;;;;;;;;;4921585;29;19918;-91
2023/01/31 19:12:28;;;;;;;;;;;;;;;;;;4924967;29;19919;-92
2023/01/31 19:14:55;;;;;;;;;;;;;;;;;;4940718;29;20370;-94
2023/01/31 19:17:20;;;;;;;;;;;;;;;;;;4924103;29;20017;-91
2023/01/31 19:19:45;;;;;;;;;;;;;;;;;;4924041;29;20354;-90
2023/01/31 19:22:11;;;;;;;;;;;;;;;;;;4923683;29;19925;-93
2023/01/31 19:24:36;;;;;;;;;;;;;;;;;;4925330;29;19919;-93
2023/01/31 19:27:07;;;;;;;;;;;;;;;;;;4930642;29;19962;-96
2023/01/31 19:29:37;;;;;;;;;;;;;;;;;;4928368;29;19982;-95
2023/01/31 19:32:03;;;;;;;;;;;;;;;;;;4925056;29;19919;-96
2023/01/31 19:34:28;;;;;;;;;;;;;;;;;;4929570;29;19973;-95
2023/01/31 19:36:53;;;;;;;;;;;;;;;;;;4923896;29;19919;-95
2023/01/31 19:39:22;;;;;;;;;;;;;;;;;;4923810;29;19919;-90
2023/01/31 19:44:31;;;;;;;;;;;;;;;;;;5196409;23;19973;-96
2023/01/31 19:49:46;;;;;;;;;;;;;;;;;;4980343;23;19935;-96
2023/01/31 19:52:30;;;;;;;;;;;;;;;;;;4974487;28;19910;-96
2023/01/31 20:00:03;;;;;;;;;;;;;;;;;;4974874;28;19933;-96
2023/01/31 20:02:31;;;;;;;;;;;;;;;;;;4981091;23;19930;-96
2023/01/31 20:04:57;;;;;;;;;;;;;;;;;;4957417;23;19950;-96
2023/01/31 20:07:22;;;;;;;;;;;;;;;;;;4932286;29;19931;-96
2023/01/31 20:09:49;;;;;;;;;;;;;;;;;;4943180;29;19994;-95
2023/01/31 20:12:17;;;;;;;;;;;;;;;;;;4948764;23;19935;-94
2023/01/31 20:15:04;;;;;;;;;;;;;;;;;;4956568;28;19942;-95
2023/01/31 20:17:37;;;;;;;;;;;;;;;;;;4939181;29;19927;-93
2023/01/31 20:20:04;;;;;;;;;;;;;;;;;;4922331;29;19923;-95
2023/01/31 20:22:30;;;;;;;;;;;;;;;;;;4922365;29;19974;-94
2023/01/31 20:24:56;;;;;;;;;;;;;;;;;;4922150;29;19919;-93
2023/01/31 20:27:21;;;;;;;;;;;;;;;;;;4932343;29;19919;-95
2023/01/31 20:29:47;;;;;;;;;;;;;;;;;;4948289;29;19925;-96
2023/01/31 20:32:16;;;;;;;;;;;;;;;;;;4926577;29;19923;-96
2023/01/31 20:37:21;;;;;;;;;;;;;;;;;;5028414;23;19927;-94
2023/01/31 20:39:47;;;;;;;;;;;;;;;;;;4926698;29;19918;-90
2023/01/31 20:42:12;;;;;;;;;;;;;;;;;;4921599;29;20288;-89
2023/01/31 20:44:37;;;;;;;;;;;;;;;;;;4933096;29;20367;-88
2023/01/31 20:47:03;;;;;;;;;;;;;;;;;;4901936;29;19930;-87
2023/01/31 20:49:28;;;;;;;;;;;;;;;;;;4901737;29;19919;-86
2023/01/31 20:51:54;;;;;;;;;;;;;;;;;;4901818;29;19920;-88
2023/01/31 20:54:19;;;;;;;;;;;;;;;;;;4919012;29;19945;-87
2023/01/31 20:56:44;;;;;;;;;;;;;;;;;;4901335;29;20017;-90
2023/01/31 20:59:10;;;;;;;;;;;;;;;;;;4918865;29;19987;-88
2023/01/31 21:01:35;;;;;;;;;;;;;;;;;;4918792;29;19919;-89
2023/01/31 21:04:01;;;;;;;;;;;;;;;;;;4914579;29;19926;-95
2023/01/31 21:06:26;;;;;;;;;;;;;;;;;;4920460;29;19975;-92
2023/01/31 21:08:58;;;;;;;;;;;;;;;;;;5003134;23;19923;-91
2023/01/31 21:11:26;;;;;;;;;;;;;;;;;;4892374;23;19920;-95
2023/01/31 21:14:33;;;;;;;;;;;;;;;;;;4918637;29;19925;-90
2023/01/31 21:17:23;;;;;;;;;;;;;;;;;;4939012;29;19911;-94
2023/01/31 21:19:49;;;;;;;;;;;;;;;;;;4935091;29;19919;-93
2023/01/31 21:22:16;;;;;;;;;;;;;;;;;;4931854;29;19962;-93
2023/01/31 21:24:53;;;;;;;;;;;;;;;;;;4932445;29;19939;-94
2023/01/31 21:27:19;;;;;;;;;;;;;;;;;;4940778;29;19945;-92
2023/01/31 21:30:03;;;;;;;;;;;;;;;;;;4964710;23;19923;-91
2023/01/31 21:35:18;;;;;;;;;;;;;;;;;;4968863;23;19990;-96
2023/01/31 21:37:49;;;;;;;;;;;;;;;;;;4942076;29;19914;-92
2023/01/31 21:40:39;;;;;;;;;;;;;;;;;;4954648;23;19926;-90
2023/01/31 21:46:33;;;;;;;;;;;;;;;;;;5065961;23;19901;-93
2023/01/31 21:49:31;;;;;;;;;;;;;;;;;;4906620;29;19907;-90
2023/01/31 21:52:17;;;;;;;23.75;12.43;;;;;;;;;;4916200;29;19941;-93
2023/01/31 21:54:42;;;;;;;29.27;15.88;;;;;;;;;;4936833;29;20084;-94
2023/01/31 21:57:08;;;;;;;19.73;11.10;;;;;;;;;;4937654;29;20023;-94
2023/01/31 22:00:07;;;;;;;56.25;28.58;;;;;;;;;;4937823;29;20051;-93
2023/01/31 22:02:34;;;;;;;12.73;8.50;;;;;;;;;;4919797;29;20052;-96
2023/01/31 22:05:41;;;;;;;11.35;6.90;;;;;;;;;;4914449;29;20012;-91
2023/01/31 22:08:42;;;;;;;11.38;6.45;;;;;;;;;;4957350;23;20043;-91
2023/01/31 22:11:16;;;;;;;10.18;6.45;;;;;;;;;;4964814;29;20039;-90
2023/01/31 22:14:04;;;;;;;;;;;;;;;;;;4954015;28;20031;-91
2023/01/31 22:16:43;;;;;;;;;;;;;;;;;;4937848;29;19942;-95
2023/01/31 22:19:31;;;;;;;;;;;;;;;;;;5018301;23;19919;-90
2023/01/31 22:21:58;;;;;;;;;;;;;;;;;;4916367;23;19923;-91
2023/01/31 22:24:33;;;;;;;;;;;;;;;;;;4954554;29;19923;-90
2023/01/31 22:26:58;;;;;;;;;;;;;;;;;;4954058;29;20005;-92
2023/01/31 22:29:28;;;;;;;;;;;;;;;;;;4953439;29;19922;-92
2023/01/31 22:31:54;;;;;;;;;;;;;;;;;;4957538;29;19919;-93
2023/01/31 22:34:20;;;;;;;;;;;;;;;;;;4930957;29;19923;-95
2023/01/31 22:36:46;;;;;;;;;;;;;;;;;;4944114;29;19931;-95
2023/01/31 22:39:20;;;;;;;;;;;;;;;;;;4938163;29;19929;-90
2023/01/31 22:41:46;;;;;;;;;;;;;;;;;;4932163;29;19982;-92
2023/01/31 22:44:17;;;;;;;;;;;;;;;;;;4937591;29;19947;-89
2023/01/31 22:46:43;;;;;;;;;;;;;;;;;;4971377;23;19933;-91
2023/01/31 22:49:23;;;;;;;;;;;;;;;;;;4957227;29;19942;-90
2023/01/31 22:51:51;;;;;;;;;;;;;;;;;;4975418;29;19957;-90
2023/01/31 22:54:17;;;;;;;;;;;;;;;;;;4960295;29;19898;-90
2023/01/31 22:57:01;;;;;;;;;;;;;;;;;;4979064;28;19925;-91
2023/01/31 22:59:27;;;;;;;;;;;;;;;;;;4979861;28;19919;-90
2023/01/31 23:01:56;;;;;;;;;;;;;;;;;;4975176;28;19898;-90
2023/01/31 23:04:51;;;;;;;;;;;;;;;;;;5061819;23;19915;-89
2023/01/31 23:07:21;;;;;;;;;;;;;;;;;;4955467;29;19907;-91
2023/01/31 23:10:00;;;;;;;;;;;;;;;;;;5021640;23;19927;-91
2023/01/31 23:12:27;;;;;;;;;;;;;;;;;;4915332;29;19907;-90
2023/01/31 23:15:10;;;;;;;;;;;;;;;;;;4945740;29;19927;-91
2023/01/31 23:17:46;;;;;;;;;;;;;;;;;;4964012;28;19906;-90
2023/01/31 23:20:45;;;;;;;;;;;;;;;;;;4960205;28;19978;-90
2023/01/31 23:23:59;;;;;;;;;;;;;;;;;;4948266;23;19907;-89
2023/01/31 23:26:33;;;;;;;;;;;;;;;;;;4926368;29;19907;-89
2023/01/31 23:29:47;;;;;;;;;;;;;;;;;;5123147;23;19907;-92
2023/01/31 23:32:33;;;;;;;;;;;;;;;;;;4897226;23;19930;-96
2023/01/31 23:35:00;;;;;;;;;;;;;;;;;;5056051;23;19906;-92
